Allenwood, New York
Current Conditions -  °F | °C
As of 11:51 AM on Thursday 23 Oct 2014 (Local Time) from KLGA Reporting Station
Light Rain Light Rain  
Wind Chill: 11°   Ceiling: 1500
Heat Index: 11°   Visibility: 10mi
Dew Point:   Wind: 17mph
Humidity: 83%   Direction: 350°N
Pressure: 29.71"   Gusts: 25mph
Location:  40.786°N, 73.7291°W
Report Text: KLGA 231551Z 35015G22KT 10SM -RA BKN015 BKN020 OVC031 11/08 A2971 RMK AO2 PK WND 35026/1505 SLP061 P0000 T01110083
Loading
Personal Weather Stations






























Interactive Weather Map
Tropical Storm Tracking
New forecast layout! Learn more

10-Day Weather Forecast

Advertisements
Track Severe Weather on mobile